Date,TemperatureHighF,TemperatureAvgF,TemperatureLowF,DewpointHighF,DewpointAvgF,DewpointLowF,HumidityHigh,HumidityAvg,HumidityLow,PressureMaxIn,PressureMinIn,WindSpeedMaxMPH,WindSpeedAvgMPH,GustSpeedMaxMPH,PrecipitationSumIn
2013-1-25,38.0,33.5,30.4,35.0,32.3,30.0,98,95,88,30.26,30.19,0,0,0,0.11
2013-1-26,53.2,40.1,28.0,38.0,30.6,-99.9,98,74,42,30.35,30.25,3,-10,6,0.00
2013-1-27,65.2,54.2,44.8,53.0,44.1,34.0,84,69,58,30.27,30.10,3,0,9,0.00
2013-1-28,72.2,62.7,56.7,62.0,57.0,53.0,93,82,65,30.16,30.03,4,1,8,0.04
2013-1-29,75.4,67.5,59.6,65.0,60.5,57.0,95,79,60,30.04,29.42,7,1,16,0.14
2013-1-30,61.6,47.8,32.3,58.0,41.7,26.0,98,80,60,30.03,29.52,11,2,16,0.00
2013-1-31,53.8,39.2,26.8,36.0,27.9,22.0,93,67,37,30.33,30.04,12,1,16,0.00
2013-2-1,34.8,27.8,20.7,20.0,13.1,8.0,75,55,36,30.56,30.33,4,1,13,0.00
2013-2-2,48.9,36.6,24.6,34.0,27.6,16.0,95,71,51,30.32,30.15,4,0,5,0.00
2013-2-3,54.2,41.7,31.5,34.0,29.7,24.0,97,66,33,30.20,30.11,9,1,14,0.00
2013-2-4,58.8,45.6,34.3,45.0,34.7,27.0,95,68,35,30.11,29.91,3,0,7,0.26
2013-2-5,63.7,48.1,35.4,50.0,42.6,35.0,99,84,50,30.06,29.93,4,0,6,0.00
2013-2-6,60.9,49.1,35.9,43.0,40.0,35.0,99,74,49,30.22,30.05,5,0,10,0.00
2013-2-7,68.5,55.6,40.2,55.0,47.6,37.0,97,76,54,30.05,29.86,2,0,6,0.19
2013-2-8,56.1,43.4,30.1,56.0,39.1,29.0,98,85,69,30.32,29.89,7,2,13,0.23
2013-2-9,50.3,40.2,27.7,40.0,33.4,27.0,98,79,54,30.35,30.04,6,0,8,0.00
2013-2-10,59.8,54.5,48.5,58.0,48.9,37.0,97,82,58,30.04,29.74,5,1,15,0.78
2013-2-11,57.0,48.8,42.6,50.0,34.8,27.0,84,61,32,30.20,29.96,3,0,8,0.00
2013-2-12,51.0,45.1,34.9,42.0,37.3,33.0,97,75,50,30.16,29.80,6,0,10,0.02
2013-2-13,44.3,40.1,34.8,42.0,38.0,34.0,98,92,82,30.03,29.78,3,0,9,0.08
2013-2-14,62.2,46.2,33.9,42.0,36.3,32.0,99,73,33,30.07,29.99,5,0,8,0.00
2013-2-15,54.6,43.5,33.7,40.0,32.2,25.0,94,68,35,30.21,30.05,12,1,13,0.00
2013-2-16,38.9,32.3,25.2,24.0,20.6,15.0,85,64,40,30.29,30.20,7,1,13,0.00
2013-2-17,55.8,42.9,29.0,30.0,24.9,21.0,80,51,30,30.28,30.08,4,1,9,0.00
2013-2-18,59.7,50.6,42.7,52.0,42.9,31.0,97,76,56,30.09,29.75,6,1,13,0.94
2013-2-19,49.4,40.2,28.7,43.0,28.7,23.0,87,66,37,30.29,29.96,7,1,16,0.00
2013-2-20,35.1,32.1,28.6,26.0,20.1,15.0,86,62,48,30.38,30.20,6,1,9,0.00
2013-2-21,43.6,37.2,32.1,43.0,32.1,23.0,98,83,56,30.21,29.77,9,1,12,1.02
2013-2-22,49.4,41.2,35.3,41.0,37.9,32.0,98,89,67,30.10,29.88,2,0,5,0.00
2013-2-23,49.9,36.8,28.3,32.0,29.5,27.0,96,78,45,30.08,29.97,3,0,11,0.00
2013-2-24,56.9,41.3,26.4,34.0,29.9,26.0,98,69,38,30.13,29.93,9,1,12,0.00
2013-2-25,59.9,51.5,40.2,53.0,38.1,27.0,96,62,34,29.93,29.31,9,2,18,0.64
2013-2-26,54.0,44.8,40.7,53.0,39.9,34.0,96,83,73,29.82,29.33,5,2,14,0.00
2013-2-27,44.4,41.1,38.7,37.0,33.8,29.0,88,75,66,29.99,29.82,4,0,11,0.00
2013-2-28,42.6,38.5,32.0,33.0,29.4,28.0,87,70,58,30.11,29.98,4,1,11,0.00
2013-3-1,38.5,35.4,32.3,31.0,29.3,28.0,88,78,69,30.17,30.10,3,1,11,0.00
2013-3-2,34.7,31.9,27.6,30.0,26.8,21.0,92,82,64,30.26,30.15,6,1,16,0.00
2013-3-3,47.0,34.4,20.3,28.0,22.7,18.0,96,67,33,30.25,30.08,4,0,8,0.01
2013-3-4,70.1,54.1,36.1,47.0,32.8,24.0,68,47,25,30.09,29.75,6,1,13,0.00
2013-3-5,63.0,48.9,34.3,57.0,39.2,24.0,94,71,43,30.18,29.75,13,2,19,0.39
2013-3-6,44.7,36.9,30.1,29.0,25.7,23.0,91,65,50,30.37,30.18,8,1,13,0.00
2013-3-7,52.2,39.2,28.9,34.0,30.3,27.0,93,73,45,30.41,30.29,4,1,8,0.00
2013-3-8,63.4,46.3,30.7,36.0,30.2,22.0,92,60,21,30.40,30.18,4,0,9,0.00
2013-3-9,72.4,59.5,46.6,39.0,33.8,28.0,66,40,22,30.18,29.92,4,0,13,0.00
2013-3-10,66.4,58.0,50.6,58.0,50.2,40.0,98,77,44,29.94,29.73,6,1,18,0.91
2013-3-11,49.1,41.9,31.9,45.0,35.7,31.0,95,79,59,30.05,29.82,5,1,9,0.00
2013-3-12,55.4,40.6,27.1,35.0,28.6,18.0,98,69,29,30.23,30.04,5,1,12,0.01
2013-3-13,49.5,41.4,30.9,34.0,26.8,24.0,83,58,38,30.42,30.23,6,1,13,0.00
2013-3-14,64.9,44.1,27.0,36.0,27.7,23.0,93,60,25,30.44,30.18,4,0,9,0.00
2013-3-15,76.7,67.7,66.0,51.0,43.8,-99.9,53,46,39,29.94,0.00,5,-32,9,0.00
2013-3-16,77.3,66.5,56.9,55.0,51.6,45.0,87,60,44,29.91,29.81,6,2,9,0.00
2013-3-17,66.0,56.1,48.9,55.0,49.2,44.0,92,78,63,29.91,29.68,5,1,8,0.00
2013-3-18,66.6,52.3,40.5,60.0,49.5,40.0,97,90,71,30.05,29.66,6,1,10,0.46
2013-3-19,57.7,45.0,32.7,40.0,30.7,20.0,99,64,23,30.21,30.05,5,1,10,0.01
2013-3-20,54.2,44.4,31.2,36.0,26.1,11.0,91,52,24,30.25,30.09,7,1,13,0.00
2013-3-21,45.4,36.9,26.5,33.0,19.1,12.0,91,52,28,30.13,29.96,3,0,11,0.04
2013-3-22,45.7,41.1,33.8,45.0,39.5,32.0,97,94,85,30.02,29.89,4,0,7,0.26
2013-3-23,55.1,49.1,44.8,50.0,46.7,44.0,97,91,81,29.93,29.68,9,1,10,0.33
2013-3-24,49.7,45.1,36.6,49.0,40.5,27.0,99,84,66,29.95,29.53,8,2,19,0.08
2013-3-25,40.1,36.5,32.9,29.0,25.2,22.0,74,64,54,30.25,29.95,11,2,18,0.00
2013-3-26,47.1,37.3,29.4,29.0,26.3,24.0,89,66,42,30.38,30.25,7,1,12,0.00
2013-3-27,57.5,42.6,26.1,35.0,28.8,25.0,96,64,30,30.43,30.30,5,0,7,0.00
2013-3-28,69.2,50.8,32.5,40.0,33.8,30.0,94,59,25,30.36,30.22,6,0,7,0.00
2013-3-29,64.7,53.3,44.9,54.0,45.8,35.0,96,78,35,30.27,30.16,3,0,6,0.09
2013-3-30,57.2,53.1,46.7,57.0,52.4,46.0,99,97,94,30.19,29.93,2,0,6,0.36
2013-3-31,61.5,56.0,46.1,59.0,54.3,46.0,99,94,77,29.96,29.88,5,0,7,0.03
2013-4-1,66.7,53.6,41.1,50.0,43.5,41.0,100,72,43,30.13,29.94,6,1,12,0.00
2013-4-2,52.2,45.6,40.0,41.0,33.0,28.0,92,63,45,30.27,30.11,8,2,11,0.16
2013-4-3,51.3,46.4,40.2,35.0,28.5,23.0,82,51,38,30.24,30.13,7,2,14,0.00
2013-4-4,49.2,44.5,40.8,45.0,41.3,30.0,98,90,47,30.14,29.99,3,0,6,0.26
2013-4-5,67.9,53.5,40.9,47.0,40.3,31.0,99,68,29,30.18,30.06,6,0,8,0.00
2013-4-6,77.3,60.4,41.2,45.0,40.6,31.0,96,55,23,30.10,29.91,4,1,12,0.00
2013-4-7,70.6,62.1,54.3,56.0,52.3,43.0,88,71,53,30.03,29.90,3,1,7,0.00
2013-4-8,80.1,67.8,59.5,60.0,56.5,52.0,86,68,44,29.98,29.85,5,1,13,0.00
2013-4-9,83.1,73.1,62.5,67.0,63.5,57.0,88,73,55,29.98,29.87,3,1,13,0.00
2013-4-10,86.6,76.8,69.0,68.0,65.6,62.0,93,70,48,29.93,29.66,4,1,19,0.17
2013-4-11,69.2,52.1,41.4,67.0,51.0,41.0,98,96,91,29.81,29.66,3,0,10,3.11
2013-4-12,67.8,51.9,37.0,49.0,42.5,37.0,99,75,41,30.01,29.82,4,0,14,0.01
2013-4-13,73.1,56.4,42.8,49.0,42.8,38.0,96,65,29,30.11,29.92,5,0,7,0.00
2013-4-14,72.6,61.2,49.2,57.0,51.6,46.0,93,72,51,29.92,29.75,10,1,13,0.00
2013-4-15,81.9,69.5,55.4,64.0,59.5,54.0,94,72,48,29.93,29.81,5,1,9,0.00
2013-4-16,86.4,75.8,68.1,72.0,68.6,63.0,92,79,58,30.03,29.90,5,0,11,0.00
2013-4-17,86.1,76.6,67.5,72.0,68.6,66.0,98,78,55,30.06,29.83,3,0,9,0.00
2013-4-18,79.6,69.8,46.4,68.0,62.2,45.0,96,78,55,29.85,29.61,8,1,16,2.34
2013-4-19,53.9,46.2,39.7,45.0,36.7,32.0,95,71,47,30.15,29.85,6,1,13,0.00
2013-4-20,66.9,52.3,36.4,45.0,38.3,33.0,98,66,30,30.27,30.15,4,0,9,0.00
2013-4-21,69.5,56.2,43.7,46.0,39.7,33.0,90,58,26,30.35,30.19,7,1,10,0.00
2013-4-22,76.2,60.0,41.8,51.0,46.6,40.0,95,66,36,30.21,30.02,2,0,9,0.00
2013-4-23,74.7,65.3,56.8,63.0,58.2,51.0,91,79,61,30.05,29.89,4,0,13,0.09
2013-4-24,66.0,49.1,40.0,64.0,45.0,39.0,97,86,62,30.30,29.87,6,1,12,0.66
2013-4-25,67.9,50.9,34.1,46.0,39.8,33.0,99,71,31,30.41,30.29,4,0,5,0.00
2013-4-26,65.1,55.1,46.1,53.0,47.2,42.0,94,77,44,30.43,30.22,3,0,9,0.20
2013-4-27,69.6,60.3,52.4,67.0,58.8,51.0,97,94,90,30.24,29.87,2,0,10,0.90
2013-4-28,63.4,58.8,50.0,59.0,56.1,49.0,98,91,77,29.98,29.93,4,0,7,0.00
2013-4-29,78.6,62.3,46.6,60.0,53.9,46.0,99,77,46,30.02,29.87,2,0,5,0.00
2013-4-30,83.4,68.1,53.1,61.0,55.7,52.0,95,68,37,29.96,29.88,9,0,9,0.00
2013-5-1,80.7,69.0,59.2,66.0,61.0,55.0,94,77,57,30.05,29.93,5,0,7,0.00
2013-5-2,71.8,65.2,61.4,64.0,61.3,59.0,98,87,68,30.10,29.99,2,0,8,0.06
2013-5-3,63.1,49.1,37.3,63.0,48.3,37.0,98,97,95,30.00,29.89,4,0,8,2.25
2013-5-4,56.2,44.6,34.2,46.0,40.9,34.0,99,88,54,29.98,29.90,2,0,6,0.14
2013-5-5,61.4,51.9,45.9,51.0,47.4,45.0,98,86,58,29.94,29.88,8,1,11,0.44
2013-5-6,61.2,56.6,52.6,59.0,54.7,51.0,98,94,82,29.96,29.86,3,0,10,0.04
2013-5-7,74.3,61.9,49.7,61.0,55.8,49.0,99,82,56,30.02,29.94,3,0,7,0.01
2013-5-8,81.7,66.1,51.2,64.0,56.9,51.0,99,76,43,30.08,29.99,3,0,8,0.00
2013-5-9,81.3,69.6,57.9,65.0,61.2,57.0,97,76,52,30.07,29.94,3,0,11,0.00
2013-5-10,74.9,67.4,62.8,70.0,65.9,62.0,98,95,82,29.95,29.85,2,0,8,1.73
2013-5-11,71.6,64.2,58.0,65.0,58.1,53.0,99,82,55,30.08,29.93,6,0,8,0.00
2013-5-12,66.3,57.2,45.8,49.0,39.3,31.0,92,56,29,30.23,30.09,6,1,10,0.00
2013-5-13,75.2,59.6,42.6,54.0,47.4,42.0,98,69,32,30.28,30.13,5,0,5,0.00
2013-5-14,85.8,72.2,57.4,62.0,55.9,51.0,85,59,40,30.12,30.00,5,1,7,0.00
2013-5-15,85.7,74.2,64.3,59.0,55.0,47.0,76,53,29,30.11,29.94,3,0,11,0.00
2013-5-16,77.4,70.7,64.6,66.0,62.7,58.0,95,76,62,30.00,29.89,3,0,7,0.02
2013-5-17,76.6,69.5,65.0,72.0,66.6,63.0,97,91,77,29.94,29.88,2,0,6,0.16
2013-5-18,85.0,74.7,63.2,76.0,70.7,63.0,99,88,71,29.99,29.89,3,0,5,0.00
2013-5-19,88.4,79.2,72.3,73.0,70.3,66.0,98,76,51,29.96,29.85,3,0,10,0.00
2013-5-20,87.5,79.8,72.3,73.0,71.2,70.0,93,76,59,29.94,29.81,5,1,13,0.00
2013-5-21,80.6,70.1,64.3,74.0,67.7,63.0,98,92,78,29.99,29.77,3,0,15,3.80
2013-5-22,78.4,69.3,63.2,68.0,64.4,62.0,99,86,62,29.89,29.76,2,0,11,0.10
2013-5-23,80.4,71.0,60.5,66.0,62.3,58.0,98,76,53,30.12,29.90,4,0,8,0.00
2013-5-24,74.4,64.3,54.2,58.0,52.8,47.0,95,69,39,30.30,30.13,6,1,8,0.00
2013-5-25,79.9,65.2,49.7,58.0,53.9,49.0,98,71,39,30.31,30.15,2,0,6,0.00
2013-5-26,85.6,70.7,56.2,62.0,57.7,55.0,97,68,37,30.19,30.07,2,0,7,0.00
2013-5-27,85.9,74.7,62.6,71.0,63.5,58.0,89,69,50,30.09,29.95,3,0,11,0.00
2013-5-28,86.7,78.2,71.0,71.0,65.8,60.0,84,67,46,30.03,29.94,3,1,11,0.00
2013-5-29,86.9,77.8,66.0,71.0,65.4,59.0,85,66,45,30.03,29.91,5,0,18,0.00
2013-5-30,85.2,77.1,72.8,74.0,69.8,67.0,89,78,64,30.01,29.89,5,1,13,0.00
2013-5-31,83.3,75.6,65.4,77.0,72.0,64.0,98,89,76,30.00,29.83,5,1,9,1.99
2013-6-1,81.3,72.7,67.7,74.0,70.5,66.0,98,92,78,29.98,29.83,5,0,11,0.27
2013-6-2,78.7,70.9,65.3,69.0,65.8,62.0,99,85,64,29.97,29.91,6,0,9,0.04
2013-6-3,79.9,68.7,59.5,66.0,62.2,59.0,98,81,58,30.02,29.92,3,0,6,0.00
2013-6-4,85.6,72.3,59.9,68.0,63.4,59.0,97,76,45,30.02,29.91,4,0,5,0.00
2013-6-5,87.4,75.6,65.3,77.0,70.0,64.0,96,84,64,29.95,29.79,3,0,8,0.06
2013-6-6,81.4,73.9,67.7,70.0,68.4,67.0,98,84,64,29.84,29.75,4,0,8,0.00
2013-6-7,81.0,71.4,63.3,67.0,62.8,58.0,91,75,48,29.89,29.77,4,0,7,0.00
2013-6-8,84.2,70.7,57.4,67.0,60.7,53.0,98,74,37,29.99,29.88,2,0,4,0.00
2013-6-9,86.3,73.7,66.0,74.0,67.1,60.0,98,81,59,29.98,29.81,6,0,16,0.08
2013-6-10,89.2,78.3,66.8,74.0,69.3,66.0,99,77,47,29.91,29.85,3,0,11,0.00
2013-6-11,95.4,82.2,71.4,77.0,72.6,70.0,95,74,51,30.01,29.91,3,0,11,0.00
2013-6-12,94.1,84.0,72.0,78.0,74.4,71.0,97,74,54,30.03,29.88,4,0,12,0.00
2013-6-13,92.8,83.5,71.2,77.0,71.6,65.0,83,68,48,29.95,29.87,6,1,13,0.00
2013-6-14,87.0,74.9,63.4,67.0,62.8,59.0,98,70,39,30.04,29.94,3,0,7,0.00
2013-6-15,91.5,75.6,61.6,70.0,65.3,61.0,98,74,39,30.07,29.95,2,0,5,0.00
2013-6-16,85.7,76.6,68.5,77.0,71.4,67.0,95,84,66,30.03,29.93,1,0,4,0.00
2013-6-17,81.6,74.6,71.2,75.0,72.3,70.0,98,92,74,29.97,29.84,4,0,6,0.64
2013-6-18,82.6,73.8,68.5,73.0,70.5,68.0,99,90,63,29.97,29.83,5,0,6,0.01
2013-6-19,90.4,75.0,65.9,75.0,68.9,65.0,99,83,48,30.03,29.94,2,0,12,0.00
2013-6-20,91.0,77.4,65.7,75.0,69.8,65.0,99,80,48,30.12,30.03,4,0,5,0.00
2013-6-21,92.0,80.1,70.1,77.0,71.1,68.0,94,76,49,30.16,30.06,2,0,6,0.00
2013-6-22,91.7,79.9,69.1,75.0,71.2,68.0,96,76,52,30.13,30.00,3,0,5,0.00
2013-6-23,89.8,78.9,70.7,75.0,70.9,67.0,91,78,56,30.09,29.99,3,0,7,0.00
2013-6-24,91.9,80.8,71.4,77.0,73.5,70.0,96,80,56,30.11,30.00,2,0,5,0.00
2013-6-25,89.8,82.2,73.9,77.0,73.3,69.0,95,75,58,30.06,29.91,5,0,10,0.00
2013-6-26,91.1,83.4,73.5,76.0,72.5,69.0,93,71,53,29.97,29.83,3,0,10,0.00
2013-6-27,96.4,85.9,74.5,81.0,75.3,70.0,87,71,54,29.90,29.80,6,0,9,0.00
2013-6-28,85.9,77.4,71.5,77.0,72.8,69.0,98,86,67,29.90,29.70,6,0,13,0.86
2013-6-29,87.7,76.1,65.6,71.0,66.0,60.0,99,74,44,29.76,29.67,4,0,11,0.00
2013-6-30,79.5,70.8,64.1,68.0,65.1,63.0,96,82,65,29.83,29.71,5,0,9,0.00
2013-7-1,78.4,71.1,64.4,70.0,65.4,62.0,98,83,65,29.93,29.82,4,0,11,0.03
2013-7-2,81.9,71.4,60.9,67.0,63.9,60.0,98,79,56,30.04,29.91,3,0,8,0.00
2013-7-3,83.3,71.0,60.6,68.0,64.6,60.0,98,82,55,30.10,30.01,2,0,5,0.00
2013-7-4,87.4,74.7,62.8,74.0,67.9,62.0,98,81,52,30.04,29.95,3,0,6,0.00
2013-7-5,86.3,74.9,67.3,74.0,69.4,63.0,98,84,61,30.07,29.96,5,0,7,0.00
2013-7-6,85.4,74.4,64.6,74.0,69.3,63.0,97,85,64,30.06,29.96,1,0,5,0.01
2013-7-7,89.1,78.4,70.0,76.0,72.3,69.0,98,83,60,30.08,30.01,4,0,5,0.00
2013-7-8,89.2,78.9,70.5,78.0,73.7,70.0,99,85,64,30.13,30.05,1,0,5,0.00
2013-7-9,94.0,83.1,73.4,78.0,74.1,72.0,98,76,49,30.11,29.98,4,0,6,0.00
2013-7-10,92.9,84.1,76.5,80.0,75.3,72.0,88,75,59,30.03,29.87,5,0,15,0.00
2013-7-11,94.1,81.8,72.8,78.0,72.1,64.0,96,74,50,29.96,29.89,5,0,7,0.00
2013-7-12,87.8,75.9,63.8,67.0,63.6,61.0,91,68,45,30.02,29.94,5,1,8,0.00
2013-7-13,88.1,73.5,59.5,66.0,62.2,59.0,98,72,40,30.03,29.95,3,0,8,0.00
2013-7-14,88.9,76.0,64.3,73.0,69.1,63.0,96,81,57,30.07,29.97,6,0,11,0.00
2013-7-15,90.1,78.6,71.7,76.0,73.6,71.0,97,86,59,30.18,30.07,6,0,8,0.00
2013-7-16,92.7,81.3,71.5,75.0,72.6,71.0,98,77,53,30.25,30.18,5,0,6,0.00
2013-7-17,95.4,81.9,70.2,78.0,73.4,69.0,98,78,46,30.29,30.14,3,0,6,0.00
2013-7-18,94.3,78.7,71.3,79.0,74.2,71.0,99,88,57,30.18,30.01,3,0,7,1.59
2013-7-19,89.0,78.5,71.5,77.0,73.6,71.0,99,86,65,30.07,29.93,3,0,6,0.00
2013-7-20,90.2,80.3,72.1,78.0,73.9,71.0,98,82,62,29.96,29.83,3,0,8,0.00
2013-7-21,91.0,81.6,73.4,78.0,73.8,71.0,96,78,55,29.95,29.86,6,0,8,0.00
2013-7-22,84.9,77.8,70.8,79.0,74.0,69.0,98,88,74,29.94,29.84,2,0,11,1.68
2013-7-23,87.9,77.8,70.0,79.0,74.3,69.0,98,89,60,30.00,29.82,3,0,11,0.33
2013-7-24,84.2,77.1,72.5,76.0,73.8,70.0,98,90,66,29.96,29.85,4,0,6,0.22
2013-7-25,82.8,72.8,63.1,69.0,65.4,63.0,98,79,52,30.07,29.95,3,0,7,0.00
2013-7-26,83.1,71.2,60.7,71.0,66.4,60.0,99,86,57,30.07,29.95,1,0,3,0.00
2013-7-27,84.5,75.4,69.9,73.0,69.8,68.0,97,84,62,30.00,29.89,6,0,7,0.00
2013-7-28,82.7,71.6,65.7,68.0,64.9,62.0,95,80,53,30.06,29.95,2,0,6,0.00
2013-7-29,86.1,73.4,65.2,71.0,66.4,63.0,94,80,54,30.15,30.05,5,0,5,0.00
2013-7-30,81.2,76.1,71.9,76.0,71.9,67.0,97,87,78,30.12,30.00,1,0,4,0.01
2013-7-31,87.4,78.1,73.5,80.0,75.4,72.0,98,91,77,30.04,29.92,1,0,5,0.31
2013-8-1,85.9,77.0,69.0,75.0,72.0,68.0,99,86,65,30.05,29.96,4,0,12,0.00
2013-8-2,89.0,76.4,65.2,74.0,70.0,65.0,99,82,54,30.03,29.94,2,0,4,0.00
2013-8-3,79.6,75.3,71.1,75.0,72.7,70.0,98,91,84,30.06,29.93,3,0,8,0.08
2013-8-4,88.8,77.7,67.9,78.0,72.6,68.0,99,85,63,30.11,30.03,3,0,6,0.00
2013-8-5,78.1,74.9,70.8,77.0,73.0,69.0,99,94,83,30.05,29.90,2,0,4,0.81
2013-8-6,85.0,78.2,73.6,79.0,75.9,73.0,99,93,77,29.97,29.86,2,0,6,0.03
2013-8-7,91.5,81.2,74.5,79.0,76.3,73.0,97,86,58,29.95,29.85,3,0,10,0.00
2013-8-8,93.9,83.2,76.9,82.0,78.2,76.0,98,86,65,29.94,29.84,2,0,4,0.00
2013-8-9,92.4,83.1,75.0,80.0,77.4,74.0,98,84,63,30.00,29.91,3,0,7,0.00
2013-8-10,84.9,79.2,74.6,77.0,75.1,74.0,97,87,72,30.13,29.99,2,0,7,0.06
2013-8-11,84.0,76.3,71.6,79.0,74.9,71.0,99,96,84,30.16,30.03,3,0,7,2.67
2013-8-12,90.1,79.3,72.4,81.0,75.9,72.0,99,90,68,30.06,29.92,3,0,12,0.18
2013-8-13,83.2,76.4,71.7,77.0,73.3,69.0,99,91,74,30.01,29.92,3,0,7,0.00
2013-8-14,77.7,70.9,62.2,69.0,62.2,58.0,90,75,54,30.08,29.98,4,1,7,0.00
2013-8-15,79.3,66.5,55.3,63.0,58.8,55.0,98,78,50,30.09,30.00,2,0,6,0.00
2013-8-16,80.4,70.0,58.9,71.0,65.7,58.0,99,87,67,30.06,29.99,2,0,6,0.00
2013-8-17,79.4,71.9,65.5,72.0,68.4,65.0,99,89,71,30.09,30.01,3,0,6,0.15
2013-8-18,82.0,71.6,64.8,72.0,68.4,64.0,99,90,66,30.13,30.04,1,0,4,0.00
2013-8-19,86.1,74.1,64.4,73.0,69.0,64.0,99,86,61,30.10,30.00,4,0,6,0.00
2013-8-20,87.3,75.8,67.2,76.0,71.8,67.0,99,88,65,30.09,30.01,3,0,5,0.00
2013-8-21,91.4,79.1,69.7,79.0,73.4,69.0,100,84,52,30.13,30.04,2,0,7,0.00
2013-8-22,91.2,80.4,72.2,78.0,75.1,72.0,99,85,60,30.12,30.00,1,0,4,0.00
2013-8-23,91.6,79.6,69.7,78.0,73.3,69.0,99,83,54,30.07,29.98,3,0,7,0.00
2013-8-24,92.9,80.7,70.8,78.0,73.5,70.0,98,81,54,30.13,30.03,2,0,7,0.00
2013-8-25,86.3,77.9,73.0,77.0,73.9,72.0,96,88,69,30.25,30.13,2,0,7,0.00
2013-8-26,89.8,77.4,69.7,75.0,71.4,68.0,99,83,56,30.25,30.12,3,0,6,0.00
2013-8-27,88.0,76.2,66.4,74.0,69.7,65.0,98,82,56,30.15,30.03,3,0,6,0.00
2013-8-28,90.0,77.0,66.2,75.0,69.8,66.0,99,81,52,30.09,30.01,6,0,6,0.00
2013-8-29,93.2,79.1,68.7,77.0,72.5,68.0,99,82,52,30.07,29.96,6,0,8,0.00
2013-8-30,95.5,80.9,70.8,77.0,73.5,70.0,99,81,45,30.01,29.88,3,0,6,0.00
2013-8-31,95.5,82.1,72.3,76.0,73.9,71.0,98,78,49,29.91,29.80,3,0,7,0.00
2013-9-1,90.8,78.8,74.0,76.0,73.5,71.0,96,84,60,29.92,29.80,4,0,10,0.41
2013-9-2,88.4,78.0,72.6,79.0,75.0,72.0,99,91,67,29.92,29.81,5,0,7,0.07
2013-9-3,86.3,74.8,65.4,72.0,67.6,62.0,99,81,49,30.03,29.91,6,0,10,0.01
2013-9-4,86.8,72.5,61.9,70.0,65.3,61.0,99,81,52,30.13,30.01,5,0,7,0.00
2013-9-5,88.2,73.3,61.5,70.0,65.7,61.0,99,80,49,30.16,30.08,2,0,6,0.00
2013-9-6,89.5,74.8,65.0,70.0,67.2,65.0,98,80,47,30.14,30.03,4,0,5,0.00
2013-9-7,93.1,76.6,64.5,74.0,69.1,64.0,99,80,44,30.07,29.95,2,0,6,0.00
2013-9-8,94.5,79.0,67.1,75.0,71.3,66.0,98,80,46,29.99,29.88,2,0,4,0.00
2013-9-9,88.3,78.4,71.0,78.0,73.8,70.0,97,86,68,30.03,29.93,1,0,4,0.05
2013-9-10,93.8,77.1,71.4,77.0,71.0,-99.9,99,85,48,30.12,30.02,2,-11,7,0.00
2013-9-11,82.8,74.8,73.1,78.0,69.1,-99.9,99,90,82,30.10,0.00,0,-36,2,0.00
2013-9-12,90.9,78.0,70.2,78.0,71.3,-99.9,99,83,58,30.06,29.92,2,-12,8,0.00
2013-9-13,81.8,78.3,70.6,60.0,57.8,56.0,66,50,43,29.99,29.94,3,1,7,0.00
2013-9-14,70.0,62.2,53.0,56.0,52.9,50.0,98,74,51,30.11,30.05,5,1,7,0.00
2013-9-15,76.8,56.6,51.8,61.0,54.2,51.0,98,93,58,30.08,30.05,0,0,0,0.00
2013-9-16,87.4,71.1,57.6,69.0,62.0,56.0,99,77,38,30.15,30.07,2,0,5,0.00
2013-9-17,88.2,74.9,64.7,70.0,67.3,64.0,98,79,50,30.16,30.03,3,0,5,0.00
2013-9-18,86.4,76.8,67.9,75.0,71.1,67.0,97,83,65,30.10,30.00,3,0,9,0.00
2013-9-19,88.6,77.0,68.6,74.0,70.2,68.0,98,81,53,30.09,29.94,2,0,7,0.00
2013-9-20,76.2,72.8,69.8,74.0,70.5,68.0,99,93,79,29.97,29.82,2,0,5,2.27
2013-9-21,75.5,67.1,56.6,70.0,60.7,54.0,99,82,52,29.92,29.81,5,0,12,0.07
2013-9-22,76.4,62.1,51.1,59.0,55.1,51.0,99,81,48,29.96,29.87,2,0,7,0.00
2013-9-23,81.8,65.7,54.0,65.0,59.2,53.0,98,82,50,29.97,29.87,2,0,7,0.00
2013-9-24,76.1,69.9,63.4,73.0,68.2,62.0,99,94,87,29.92,29.80,1,0,5,0.56
2013-9-25,81.5,72.6,67.0,72.0,69.5,67.0,99,91,63,29.84,29.77,1,0,6,0.00
2013-9-26,85.9,72.4,64.7,72.0,67.6,64.0,100,86,56,29.98,29.83,3,0,7,0.00
2013-9-27,84.7,70.4,61.3,71.0,65.8,61.0,100,87,54,30.08,29.98,2,0,4,0.00
2013-9-28,82.2,70.4,62.2,65.0,62.8,61.0,96,79,52,30.12,30.01,3,0,8,0.00
2013-9-29,69.1,66.5,63.9,66.0,63.8,61.0,98,91,76,30.04,29.95,2,0,5,0.09
2013-9-30,73.9,68.7,65.5,70.0,67.2,65.0,99,95,86,29.98,29.92,3,0,6,0.02
2013-10-1,81.7,72.8,67.6,74.0,69.7,66.0,97,90,74,30.05,29.96,4,0,5,0.00
2013-10-2,83.1,73.4,68.2,73.0,69.5,67.0,98,88,62,30.10,30.01,2,0,6,0.00
2013-10-3,84.6,74.5,65.9,74.0,69.9,65.0,98,86,66,30.05,29.94,3,0,6,0.00
2013-10-4,82.7,74.9,69.2,74.0,71.7,68.0,98,90,75,30.05,29.96,3,0,8,0.00
2013-10-5,84.4,77.3,72.0,75.0,72.8,71.0,97,86,70,30.02,29.87,3,0,7,0.08
2013-10-6,73.9,60.8,51.4,73.0,56.1,49.0,97,86,55,30.00,29.88,4,0,9,0.69
2013-10-7,66.7,55.1,46.3,54.0,50.1,46.0,99,85,60,30.13,29.97,4,0,10,0.00
2013-10-8,71.4,57.1,45.3,56.0,51.0,45.0,99,83,49,30.17,30.07,4,0,8,0.00
2013-10-9,77.9,63.4,52.2,67.0,60.0,51.0,98,89,70,30.15,30.07,3,0,6,0.00
2013-10-10,76.7,64.3,56.0,68.0,61.5,56.0,100,91,63,30.16,30.01,2,0,4,0.00
2013-10-11,79.6,65.5,55.6,68.0,61.2,55.0,100,87,58,30.06,29.95,3,0,5,0.00
2013-10-12,71.2,64.7,58.1,69.0,63.9,58.0,99,97,88,30.13,29.99,2,0,16,0.48
2013-10-13,77.3,67.2,59.4,67.0,63.1,56.0,100,87,66,30.27,30.14,5,0,6,0.01
2013-10-14,79.0,65.0,54.5,68.0,60.5,52.0,96,86,61,30.23,30.06,3,0,5,0.00
2013-10-15,71.2,68.0,66.2,67.0,65.7,64.0,99,92,85,30.05,29.95,4,0,6,0.48
2013-10-16,66.7,60.0,55.8,66.0,59.0,55.0,99,96,89,30.04,29.95,3,0,8,0.44
2013-10-17,65.1,57.2,47.8,58.0,54.3,47.0,99,91,68,30.04,29.96,2,0,7,0.04
2013-10-18,68.5,55.2,44.0,57.0,51.2,44.0,100,88,55,30.09,29.95,1,0,4,0.00
2013-10-19,57.3,51.3,40.9,56.0,48.6,40.0,99,91,73,30.09,29.93,3,0,8,0.03
2013-10-20,63.5,49.0,38.7,50.0,43.9,38.0,99,85,48,30.14,30.01,2,0,4,0.00
2013-10-21,69.6,54.9,42.4,57.0,49.4,42.0,99,84,52,30.09,29.99,7,0,8,0.02
2013-10-22,64.2,55.0,48.6,54.0,48.7,42.0,97,81,45,30.09,29.91,3,0,8,0.02
2013-10-23,56.0,48.6,40.9,49.0,41.8,38.0,97,79,53,30.18,29.96,6,0,10,0.00
2013-10-24,60.6,47.9,37.8,49.0,42.0,36.0,98,82,53,30.40,30.13,6,0,11,0.00
2013-10-25,51.7,40.7,33.7,38.0,33.2,29.0,96,78,43,30.55,30.35,4,0,6,0.00
2013-10-26,62.2,49.0,34.1,51.0,41.6,33.0,97,78,53,30.34,30.11,4,0,6,0.00
2013-10-27,65.3,58.0,51.7,60.0,55.5,51.0,97,91,76,30.12,30.02,2,0,4,0.00
2013-10-28,67.5,59.2,53.9,60.0,57.0,53.0,99,93,75,30.23,30.07,1,0,3,0.00
2013-10-29,73.4,62.7,50.7,67.0,60.4,50.0,100,92,77,30.25,30.11,3,0,6,0.00
2013-10-30,73.7,67.6,61.4,68.0,64.4,61.0,98,89,79,30.18,29.97,4,0,7,0.00
2013-10-31,70.3,67.0,60.3,68.0,65.0,53.0,98,93,68,29.95,29.56,11,2,20,1.08
2013-11-1,70.9,57.6,49.3,56.0,51.2,48.0,100,82,46,29.91,29.76,4,0,8,0.08
2013-11-2,59.1,49.3,39.3,50.0,44.6,39.0,99,86,60,30.22,29.90,8,1,11,0.00
2013-11-3,59.7,45.2,34.4,46.0,39.2,34.0,99,83,47,30.34,30.18,2,0,8,0.00
2013-11-4,65.3,53.2,41.5,51.0,45.7,40.0,97,77,51,30.31,30.20,3,0,8,0.00
2013-11-5,71.1,61.1,54.1,55.0,50.2,46.0,80,68,54,30.31,30.15,6,1,9,0.00
2013-11-6,61.8,57.2,45.9,61.0,52.7,42.0,98,85,70,30.27,30.04,7,1,14,0.29
2013-11-7,55.0,44.1,35.6,42.0,37.0,33.0,98,79,45,30.43,30.28,9,0,11,0.00
2013-11-8,62.5,44.7,30.9,44.0,37.1,30.0,99,79,37,30.41,30.24,2,0,7,0.00
2013-11-9,61.1,49.6,39.6,46.0,42.9,38.0,95,79,52,30.31,30.21,2,0,8,0.00
2013-11-10,67.0,51.7,40.2,50.0,43.6,39.0,99,78,40,30.37,30.28,4,0,8,0.00
2013-11-11,69.4,50.7,35.9,48.0,42.3,35.0,99,77,37,30.32,30.18,2,0,6,0.00
2013-11-12,52.8,40.1,29.8,49.0,31.5,23.0,95,72,48,30.70,30.24,10,2,18,0.00
2013-11-13,47.3,33.5,25.3,27.0,23.6,20.0,93,70,34,30.75,30.48,3,0,7,0.00
2013-11-14,57.6,39.2,23.8,29.0,25.0,22.0,96,63,25,30.47,30.19,5,0,8,0.00
2013-11-15,59.4,49.3,42.0,53.0,44.4,28.0,97,84,56,30.18,30.03,4,0,6,0.05
2013-11-16,67.6,60.8,52.4,65.0,58.9,51.0,98,93,86,30.06,29.86,5,1,11,0.00
2013-11-17,76.1,67.8,54.1,71.0,65.5,47.0,99,92,75,29.99,29.70,6,1,16,0.76
2013-11-18,63.6,51.4,39.8,49.0,38.6,31.0,96,65,34,30.27,30.00,5,0,11,0.00
2013-11-19,51.9,43.5,32.9,35.0,30.5,26.0,90,62,39,30.33,30.19,6,0,9,0.00
2013-11-20,63.9,46.3,30.7,42.0,36.4,29.0,96,72,41,30.21,30.09,4,0,8,0.00
2013-11-21,68.6,58.4,50.3,59.0,52.8,42.0,98,82,67,30.22,30.12,3,0,12,0.69
2013-11-22,59.3,52.8,43.9,59.0,51.2,41.0,99,94,89,30.41,30.15,9,1,13,0.58
2013-11-23,45.7,40.4,29.6,41.0,31.4,19.0,92,72,42,30.61,30.38,7,2,14,0.00
2013-11-24,36.2,29.6,22.9,20.0,17.9,15.0,75,63,47,30.69,30.47,6,1,12,0.00
2013-11-25,36.2,34.5,32.0,35.0,28.3,19.0,96,79,53,30.47,30.18,2,0,4,0.08
2013-11-26,40.2,36.5,32.5,37.0,33.9,24.0,97,90,68,30.17,29.98,8,1,12,0.08
2013-11-27,33.4,27.7,19.9,25.0,18.6,16.0,93,70,53,30.43,30.17,9,2,16,0.00
2013-11-28,46.1,29.9,19.0,25.0,21.1,18.0,94,73,40,30.52,30.42,2,0,5,0.00
2013-11-29,55.4,37.2,24.5,34.0,29.1,23.0,98,76,40,30.60,30.46,2,0,5,0.00
2013-11-30,57.3,41.8,26.1,34.0,30.2,25.0,98,68,35,30.47,30.23,3,0,6,0.00
2013-12-1,60.5,51.3,38.7,47.0,40.2,32.0,81,66,54,30.24,29.95,2,0,4,0.00
2013-12-2,61.2,54.7,46.5,54.0,49.5,43.0,98,83,72,29.94,29.73,1,0,3,0.00
2013-12-3,59.6,54.4,45.0,58.0,53.6,45.0,99,97,90,29.77,29.69,5,0,7,0.00
2013-12-4,75.1,66.6,58.2,64.0,62.4,58.0,99,87,68,29.82,29.69,6,1,11,0.00
2013-12-5,69.3,47.7,34.2,67.0,45.3,33.0,96,91,81,30.17,29.82,6,1,15,0.75
2013-12-6,34.0,30.9,25.7,33.0,29.6,24.0,96,94,93,30.48,30.09,5,1,10,0.64
2013-12-7,28.6,25.5,21.9,27.0,23.5,20.0,95,92,88,30.61,30.37,4,1,7,0.00
2013-12-8,33.6,31.7,28.3,33.0,31.1,27.0,98,97,95,30.39,30.09,2,0,4,0.01
2013-12-9,33.4,32.0,30.8,31.0,29.8,29.0,97,91,86,30.34,30.19,3,0,7,0.00
2013-12-10,39.2,29.8,22.4,31.0,26.1,21.0,97,86,71,30.48,30.24,3,0,6,0.00
2013-12-11,45.9,31.1,20.8,34.0,26.7,20.0,98,85,55,30.62,30.42,6,0,8,0.03
2013-12-12,43.5,29.4,18.8,24.0,20.2,16.0,94,72,35,30.66,30.43,3,0,6,0.00
2013-12-13,48.8,35.3,22.5,38.0,27.4,21.0,97,76,39,30.43,29.95,2,0,6,0.70
2013-12-14,43.6,40.4,35.7,43.0,38.4,32.0,99,92,85,30.17,29.82,5,1,11,0.61
2013-12-15,38.8,34.2,29.9,32.0,30.1,28.0,94,85,74,30.31,30.17,3,0,14,0.00
2013-12-16,58.6,44.0,31.0,40.0,35.9,30.0,97,76,48,30.24,30.14,4,1,10,0.00
2013-12-17,59.3,44.2,31.4,42.0,36.5,30.0,96,77,50,30.32,30.17,3,0,10,0.00
2013-12-18,59.1,42.8,27.7,39.0,32.3,27.0,98,71,35,30.38,30.14,4,0,8,0.00
2013-12-19,59.9,53.4,43.6,54.0,46.6,39.0,84,78,71,30.17,29.95,7,1,10,0.00
2013-12-20,68.1,63.8,59.5,65.0,60.2,54.0,98,88,81,29.98,29.80,3,1,12,0.33
2013-12-21,72.5,64.8,52.8,67.0,62.4,52.0,98,92,81,29.80,29.47,8,1,11,0.02
2013-12-22,55.1,48.4,37.6,53.0,46.1,32.0,99,92,81,30.26,29.72,6,1,9,0.00
2013-12-23,37.5,33.3,25.9,32.0,27.7,25.0,95,80,67,30.54,30.26,9,1,12,0.00
2013-12-24,33.8,27.2,22.4,25.0,20.3,17.0,97,77,50,30.66,30.46,5,0,9,0.00
2013-12-25,48.8,33.6,20.1,33.0,24.9,18.0,93,73,41,30.46,30.33,2,0,5,0.00
2013-12-26,47.1,33.5,24.7,33.0,27.6,24.0,99,82,46,30.48,30.38,4,0,7,0.00
2013-12-27,55.1,36.4,23.3,34.0,28.2,22.0,98,76,38,30.51,30.39,2,0,4,0.00
2013-12-28,48.2,39.0,29.7,41.0,35.2,28.0,97,87,63,30.39,30.00,1,0,5,0.00
2013-12-29,55.0,44.0,34.5,45.0,39.6,30.0,99,85,63,30.23,29.98,9,0,11,0.13
2013-12-30,34.5,31.0,26.3,30.0,25.8,23.0,87,81,77,30.39,30.22,4,0,9,0.00
2013-12-31,47.7,32.2,21.7,33.0,26.0,21.0,97,80,47,30.50,30.34,2,0,11,0.04
2014-1-1,53.8,40.5,24.6,44.0,33.1,24.0,97,77,47,30.34,29.97,3,0,5,0.01
2014-1-2,48.7,33.9,22.5,47.0,28.5,15.0,98,81,65,30.49,29.93,9,2,17,0.17